ZBTJ/TSN METAR and TAF weather

Enter ICAO airport designator
Station Type Date Time Source
ZBTJ METAR 2022/06/28 14:30 UTC NOAA

ZBTJ 281430Z VRB01MPS CAVOK 25/20 Q0999 NOSIG


Station Type Date Time Source
ZBTJ Decoded METAR 2022/06/28 14:30 UTC NOAA

Tianjin / Zhangguizhu, China (ZBTJ) 39-11N 117-21E
Jun 28, 2022 - 10:30 AM EDT / 2022.06.28 1430 UTC
Wind: Variable at 2 MPH (2 KT):0
Visibility: greater than 7 mile(s):0
Temperature: 77 F (25 C)
Dew Point: 68 F (20 C)
Relative Humidity: 73%
Pressure (altimeter): 29.50 in. Hg (0999 hPa)
ob: ZBTJ 281430Z VRB01MPS CAVOK 25/20 Q0999 NOSIG
cycle: 14

Station Type Date Time Source
ZBTJ TAF 2022/06/28 12:03 UTC NOAA

TAF ZBTJ 280901Z 2812/2912 17003MPS 6000 NSC TX27/2906Z TN22/2821Z
TEMPO 2814/2818 TSRA FEW030CB BKN040
TEMPO 2822/2902 TSRA FEW030CB BKN040

Example: see airport list